Time;durP1;ratioP1;P1;durP2;ratioP2;P2;SDS_P1;SDS_P2;PMS_P1;PMS_P2;Temp;Humidity;BMP_temperature;BMP_pressure;BME280_temperature;BME280_humidity;BME280_pressure;Samples;Min_cycle;Max_cycle;Signal;HPM_P1;HPM_P2
2024/01/13 11:51:54;;;;;;;0.00;0.00;;;;;;;;;;644996;217;32368;-82
2024/01/13 13:53:23;;;;;;;0.00;0.00;;;;;;;;;;650074;217;33299;-81
2024/01/13 13:58:44;;;;;;;0.00;0.00;;;;;;;;;;637064;218;33505;-82
2024/01/13 14:04:08;;;;;;;0.00;0.00;;;;;;;;;;642773;217;34385;-83
2024/01/13 14:09:29;;;;;;;0.00;0.00;;;;;;;;;;644509;218;32770;-83
2024/01/13 14:14:51;;;;;;;0.00;0.00;;;;;;;;;;640051;218;32527;-86
2024/01/13 14:20:14;;;;;;;0.00;0.00;;;;;;;;;;642037;217;32381;-84
2024/01/13 14:25:36;;;;;;;0.00;0.00;;;;;;;;;;643957;218;32405;-84
2024/01/13 14:30:58;;;;;;;0.00;0.00;;;;;;;;;;636267;218;32616;-83
2024/01/13 14:36:23;;;;;;;0.00;0.00;;;;;;;;;;642867;218;32479;-83
2024/01/13 14:41:45;;;;;;;0.00;0.00;;;;;;;;;;637666;218;32718;-83
2024/01/13 14:47:07;;;;;;;0.00;0.00;;;;;;;;;;651229;218;33365;-84
2024/01/13 14:52:29;;;;;;;0.00;0.00;;;;;;;;;;631952;218;32639;-83
2024/01/13 14:57:52;;;;;;;0.00;0.00;;;;;;;;;;633105;218;32652;-84
2024/01/13 15:42:45;;;;;;;0.00;0.00;;;;;;;;;;652087;218;32466;-84
2024/01/13 15:48:08;;;;;;;0.00;0.00;;;;;;;;;;639386;217;32527;-84
2024/01/13 15:53:30;;;;;;;0.00;0.00;;;;;;;;;;642251;218;32553;-83
2024/01/13 15:58:53;;;;;;;0.00;0.00;;;;;;;;;;645045;218;33519;-83
2024/01/13 16:04:16;;;;;;;0.00;0.00;;;;;;;;;;651862;218;32336;-83
2024/01/13 16:09:40;;;;;;;0.00;0.00;;;;;;;;;;644297;218;33458;-84
2024/01/13 16:15:00;;;;;;;0.00;0.00;;;;;;;;;;642887;217;32537;-84
2024/01/13 16:20:22;;;;;;;0.00;0.00;;;;;;;;;;640705;217;33311;-79
2024/01/13 16:25:44;;;;;;;0.00;0.00;;;;;;;;;;642464;217;32584;-78
2024/01/13 16:31:06;;;;;;;0.00;0.00;;;;;;;;;;637388;217;32428;-78
2024/01/13 16:36:30;;;;;;;0.00;0.00;;;;;;;;;;645907;217;32338;-78
2024/01/13 16:41:52;;;;;;;0.00;0.00;;;;;;;;;;639598;217;33550;-78
2024/01/13 16:47:12;;;;;;;0.00;0.00;;;;;;;;;;643656;217;32537;-90
2024/01/13 16:52:33;;;;;;;0.00;0.00;;;;;;;;;;639781;218;34555;-79
2024/01/13 16:57:56;;;;;;;0.00;0.00;;;;;;;;;;652608;217;33019;-80
2024/01/13 17:03:18;;;;;;;0.00;0.00;;;;;;;;;;635511;217;33548;-80
2024/01/13 17:08:44;;;;;;;0.00;0.00;;;;;;;;;;630289;217;32624;-79
2024/01/13 17:14:07;;;;;;;0.00;0.00;;;;;;;;;;644730;217;32385;-79
2024/01/13 17:19:29;;;;;;;0.00;0.00;;;;;;;;;;628982;217;33530;-79
2024/01/13 17:24:51;;;;;;;0.00;0.00;;;;;;;;;;632697;217;32562;-79
2024/01/13 17:30:14;;;;;;;0.00;0.00;;;;;;;;;;635806;218;32425;-79
2024/01/13 17:35:40;;;;;;;0.00;0.00;;;;;;;;;;636154;217;32640;-80
2024/01/13 17:41:01;;;;;;;0.00;0.00;;;;;;;;;;652653;217;32409;-78
2024/01/13 17:46:30;;;;;;;0.00;0.00;;;;;;;;;;642513;218;32328;-78
2024/01/13 17:51:54;;;;;;;0.00;0.00;;;;;;;;;;637301;217;33474;-79
2024/01/13 17:57:20;;;;;;;0.00;0.00;;;;;;;;;;643991;214;32435;-79
2024/01/13 18:02:42;;;;;;;0.00;0.00;;;;;;;;;;636994;217;32530;-78
2024/01/13 18:08:03;;;;;;;0.00;0.00;;;;;;;;;;643371;217;32385;-78
2024/01/13 18:13:24;;;;;;;0.00;0.00;;;;;;;;;;627530;217;32472;-79
2024/01/13 18:18:47;;;;;;;0.00;0.00;;;;;;;;;;649820;217;32764;-78
2024/01/13 18:24:09;;;;;;;0.00;0.00;;;;;;;;;;640139;218;32346;-79
2024/01/13 18:29:30;;;;;;;0.00;0.00;;;;;;;;;;639782;217;32412;-78
2024/01/13 18:34:52;;;;;;;0.00;0.00;;;;;;;;;;639813;218;34373;-78
2024/01/13 18:40:16;;;;;;;0.00;0.00;;;;;;;;;;638533;217;32399;-79
2024/01/13 18:45:46;;;;;;;0.00;0.00;;;;;;;;;;648078;218;32368;-79
2024/01/13 18:51:07;;;;;;;0.00;0.00;;;;;;;;;;642700;217;32396;-79
2024/01/13 18:56:30;;;;;;;0.00;0.00;;;;;;;;;;652361;218;32419;-80
2024/01/13 19:01:51;;;;;;;0.00;0.00;;;;;;;;;;644990;218;33678;-80
2024/01/13 19:07:13;;;;;;;0.00;0.00;;;;;;;;;;643502;218;32533;-80
2024/01/13 19:12:36;;;;;;;0.00;0.00;;;;;;;;;;644420;218;33534;-80
2024/01/13 19:17:59;;;;;;;0.00;0.00;;;;;;;;;;645096;218;32389;-79
2024/01/13 19:23:21;;;;;;;0.00;0.00;;;;;;;;;;637500;218;34522;-79
2024/01/13 19:28:45;;;;;;;0.00;0.00;;;;;;;;;;635485;218;32657;-79
2024/01/13 19:34:05;;;;;;;0.00;0.00;;;;;;;;;;636905;217;33570;-78
2024/01/13 19:39:27;;;;;;;0.00;0.00;;;;;;;;;;641111;218;33352;-78
2024/01/13 19:44:49;;;;;;;0.00;0.00;;;;;;;;;;643295;218;32429;-79
2024/01/13 19:50:12;;;;;;;0.00;0.00;;;;;;;;;;638910;218;32611;-79
2024/01/13 19:55:34;;;;;;;0.00;0.00;;;;;;;;;;638379;217;32398;-79
2024/01/13 20:00:57;;;;;;;0.00;0.00;;;;;;;;;;643713;218;33376;-78
2024/01/13 20:06:19;;;;;;;0.00;0.00;;;;;;;;;;653974;216;32582;-78
2024/01/13 20:11:42;;;;;;;0.00;0.00;;;;;;;;;;643725;218;32417;-78
2024/01/13 20:17:04;;;;;;;0.00;0.00;;;;;;;;;;652855;217;32410;-78
2024/01/13 20:22:26;;;;;;;0.00;0.00;;;;;;;;;;641283;218;33087;-78
2024/01/13 20:27:48;;;;;;;0.00;0.00;;;;;;;;;;642285;217;32364;-78
2024/01/13 20:33:11;;;;;;;0.00;0.00;;;;;;;;;;644395;218;32421;-79
2024/01/13 20:38:34;;;;;;;0.00;0.00;;;;;;;;;;643955;218;34337;-78
2024/01/13 20:43:55;;;;;;;0.00;0.00;;;;;;;;;;640174;218;32524;-77
2024/01/13 20:49:18;;;;;;;0.00;0.00;;;;;;;;;;645076;218;33400;-77
2024/01/13 20:54:41;;;;;;;0.00;0.00;;;;;;;;;;645001;217;32813;-78
2024/01/13 21:00:03;;;;;;;0.00;0.00;;;;;;;;;;645065;218;32394;-77
2024/01/13 21:05:26;;;;;;;0.00;0.00;;;;;;;;;;645082;218;34393;-77
2024/01/13 21:10:48;;;;;;;0.00;0.00;;;;;;;;;;645020;218;32409;-80
2024/01/13 21:16:10;;;;;;;0.00;0.00;;;;;;;;;;645059;218;32397;-77
2024/01/13 21:21:33;;;;;;;0.00;0.00;;;;;;;;;;645070;218;33350;-78
2024/01/13 21:26:57;;;;;;;0.00;0.00;;;;;;;;;;646381;218;33427;-78
2024/01/13 21:32:17;;;;;;;0.00;0.00;;;;;;;;;;645041;218;32358;-77
2024/01/13 21:37:39;;;;;;;0.00;0.00;;;;;;;;;;645031;218;32425;-77
2024/01/13 21:43:04;;;;;;;0.00;0.00;;;;;;;;;;645089;218;32407;-79
2024/01/13 21:48:28;;;;;;;0.00;0.00;;;;;;;;;;645028;218;32364;-77
2024/01/13 21:53:50;;;;;;;0.00;0.00;;;;;;;;;;645063;217;33359;-77
2024/01/13 21:59:13;;;;;;;0.00;0.00;;;;;;;;;;645071;218;32387;-78
2024/01/13 22:04:35;;;;;;;0.00;0.00;;;;;;;;;;645053;218;32446;-77
2024/01/13 22:09:57;;;;;;;0.00;0.00;;;;;;;;;;659057;218;29405;-77
2024/01/13 22:15:19;;;;;;;0.00;0.00;;;;;;;;;;645031;214;32422;-77
2024/01/13 22:20:44;;;;;;;0.00;0.00;;;;;;;;;;645073;218;33382;-77
2024/01/13 22:26:06;;;;;;;0.00;0.00;;;;;;;;;;645053;213;32396;-77
2024/01/13 22:31:28;;;;;;;0.00;0.00;;;;;;;;;;645038;217;33371;-77
2024/01/13 22:36:50;;;;;;;0.00;0.00;;;;;;;;;;645032;218;32389;-77
2024/01/13 22:42:13;;;;;;;0.00;0.00;;;;;;;;;;645077;218;33350;-77
2024/01/13 22:47:35;;;;;;;0.00;0.00;;;;;;;;;;642815;214;32438;-78
2024/01/13 22:52:57;;;;;;;0.00;0.00;;;;;;;;;;653504;218;32410;-77
2024/01/13 22:58:20;;;;;;;0.00;0.00;;;;;;;;;;653337;218;32417;-78
2024/01/13 23:03:42;;;;;;;0.00;0.00;;;;;;;;;;645092;218;32419;-77
2024/01/13 23:09:09;;;;;;;0.00;0.00;;;;;;;;;;653491;218;33433;-77
2024/01/13 23:14:32;;;;;;;0.00;0.00;;;;;;;;;;645074;218;33347;-77
2024/01/13 23:19:55;;;;;;;0.00;0.00;;;;;;;;;;653563;218;32435;-78
2024/01/13 23:25:17;;;;;;;0.00;0.00;;;;;;;;;;645043;218;32401;-78
2024/01/13 23:30:38;;;;;;;0.00;0.00;;;;;;;;;;645065;218;32383;-77
2024/01/13 23:36:01;;;;;;;0.00;0.00;;;;;;;;;;653542;217;33347;-78
2024/01/13 23:41:23;;;;;;;0.00;0.00;;;;;;;;;;645074;218;33731;-78
2024/01/13 23:46:45;;;;;;;0.00;0.00;;;;;;;;;;645079;218;35316;-77
2024/01/13 23:52:08;;;;;;;0.00;0.00;;;;;;;;;;645040;218;32373;-77
2024/01/13 23:57:30;;;;;;;0.00;0.00;;;;;;;;;;645053;218;32419;-78
